sensor_id;sensor_type;location;lat;lon;timestamp;temperature;humidity
5278;DHT22;2662;51.194;6.614;2022-12-17T00:00:41;1.60;99.90
5278;DHT22;2662;51.194;6.614;2022-12-17T00:03:25;1.70;99.90
5278;DHT22;2662;51.194;6.614;2022-12-17T00:06:09;1.70;99.90
5278;DHT22;2662;51.194;6.614;2022-12-17T00:08:53;1.70;99.90
5278;DHT22;2662;51.194;6.614;2022-12-17T00:11:39;1.70;99.90
5278;DHT22;2662;51.194;6.614;2022-12-17T00:14:23;1.70;99.90
5278;DHT22;2662;51.194;6.614;2022-12-17T00:17:07;1.60;99.90
5278;DHT22;2662;51.194;6.614;2022-12-17T00:19:52;1.50;99.90
5278;DHT22;2662;51.194;6.614;2022-12-17T00:22:36;1.50;99.90
5278;DHT22;2662;51.194;6.614;2022-12-17T00:25:20;1.40;99.90
5278;DHT22;2662;51.194;6.614;2022-12-17T00:28:10;1.40;99.90
5278;DHT22;2662;51.194;6.614;2022-12-17T00:30:54;1.40;99.90
5278;DHT22;2662;51.194;6.614;2022-12-17T00:33:41;1.30;99.90
5278;DHT22;2662;51.194;6.614;2022-12-17T00:36:25;1.30;99.90
5278;DHT22;2662;51.194;6.614;2022-12-17T00:39:06;1.30;99.90
5278;DHT22;2662;51.194;6.614;2022-12-17T00:41:50;1.20;99.90
5278;DHT22;2662;51.194;6.614;2022-12-17T00:44:36;1.20;99.90
5278;DHT22;2662;51.194;6.614;2022-12-17T00:47:20;1.20;99.90
5278;DHT22;2662;51.194;6.614;2022-12-17T00:50:05;1.20;99.90
5278;DHT22;2662;51.194;6.614;2022-12-17T00:52:51;1.20;99.90
5278;DHT22;2662;51.194;6.614;2022-12-17T00:55:36;1.20;99.90
5278;DHT22;2662;51.194;6.614;2022-12-17T00:58:20;1.20;99.90
5278;DHT22;2662;51.194;6.614;2022-12-17T01:01:05;1.20;99.90
5278;DHT22;2662;51.194;6.614;2022-12-17T01:03:50;1.30;99.90
5278;DHT22;2662;51.194;6.614;2022-12-17T01:06:34;1.30;99.90
5278;DHT22;2662;51.194;6.614;2022-12-17T01:09:18;1.40;99.90
5278;DHT22;2662;51.194;6.614;2022-12-17T01:12:02;1.40;99.90
5278;DHT22;2662;51.194;6.614;2022-12-17T01:14:46;1.40;99.90
5278;DHT22;2662;51.194;6.614;2022-12-17T01:17:32;1.40;99.90
5278;DHT22;2662;51.194;6.614;2022-12-17T01:20:16;1.30;99.90
5278;DHT22;2662;51.194;6.614;2022-12-17T01:23:00;1.30;99.90
5278;DHT22;2662;51.194;6.614;2022-12-17T01:25:51;1.30;99.90
5278;DHT22;2662;51.194;6.614;2022-12-17T01:28:36;1.20;99.90
5278;DHT22;2662;51.194;6.614;2022-12-17T01:31:20;1.20;99.90
5278;DHT22;2662;51.194;6.614;2022-12-17T01:34:05;1.20;99.90
5278;DHT22;2662;51.194;6.614;2022-12-17T01:36:49;1.30;99.90
5278;DHT22;2662;51.194;6.614;2022-12-17T01:39:33;1.30;99.90
5278;DHT22;2662;51.194;6.614;2022-12-17T01:42:18;1.30;99.90
5278;DHT22;2662;51.194;6.614;2022-12-17T01:45:02;1.40;99.90
5278;DHT22;2662;51.194;6.614;2022-12-17T01:47:49;1.40;99.90
5278;DHT22;2662;51.194;6.614;2022-12-17T01:50:40;1.40;99.90
5278;DHT22;2662;51.194;6.614;2022-12-17T01:53:43;1.40;99.90
5278;DHT22;2662;51.194;6.614;2022-12-17T01:56:29;1.50;99.90
5278;DHT22;2662;51.194;6.614;2022-12-17T01:59:16;1.50;99.90
5278;DHT22;2662;51.194;6.614;2022-12-17T02:02:02;1.50;99.90
5278;DHT22;2662;51.194;6.614;2022-12-17T02:04:46;1.60;99.90
5278;DHT22;2662;51.194;6.614;2022-12-17T02:07:52;1.60;99.90
5278;DHT22;2662;51.194;6.614;2022-12-17T02:10:43;1.50;99.90
5278;DHT22;2662;51.194;6.614;2022-12-17T02:13:31;1.50;99.90
5278;DHT22;2662;51.194;6.614;2022-12-17T02:16:21;1.50;99.90
5278;DHT22;2662;51.194;6.614;2022-12-17T02:19:16;1.40;99.90
5278;DHT22;2662;51.194;6.614;2022-12-17T02:22:20;1.40;99.90
5278;DHT22;2662;51.194;6.614;2022-12-17T02:25:17;1.40;99.90
5278;DHT22;2662;51.194;6.614;2022-12-17T02:28:06;1.40;99.90
5278;DHT22;2662;51.194;6.614;2022-12-17T02:30:51;1.40;99.90
5278;DHT22;2662;51.194;6.614;2022-12-17T02:33:36;1.30;99.90
5278;DHT22;2662;51.194;6.614;2022-12-17T02:36:21;1.30;99.90
5278;DHT22;2662;51.194;6.614;2022-12-17T02:39:05;1.30;99.90
5278;DHT22;2662;51.194;6.614;2022-12-17T02:42:00;1.30;99.90
5278;DHT22;2662;51.194;6.614;2022-12-17T02:44:46;1.30;99.90
5278;DHT22;2662;51.194;6.614;2022-12-17T02:47:30;1.20;99.90
5278;DHT22;2662;51.194;6.614;2022-12-17T02:50:15;1.10;99.90
5278;DHT22;2662;51.194;6.614;2022-12-17T02:52:59;1.10;99.90
5278;DHT22;2662;51.194;6.614;2022-12-17T02:55:45;1.10;99.90
5278;DHT22;2662;51.194;6.614;2022-12-17T02:58:29;1.10;99.90
5278;DHT22;2662;51.194;6.614;2022-12-17T03:01:15;1.10;99.90
5278;DHT22;2662;51.194;6.614;2022-12-17T03:03:59;1.10;99.90
5278;DHT22;2662;51.194;6.614;2022-12-17T03:06:43;1.10;99.90
5278;DHT22;2662;51.194;6.614;2022-12-17T03:09:27;1.10;99.90
5278;DHT22;2662;51.194;6.614;2022-12-17T03:12:12;1.20;99.90
5278;DHT22;2662;51.194;6.614;2022-12-17T03:14:58;1.20;99.90
5278;DHT22;2662;51.194;6.614;2022-12-17T03:17:44;1.20;99.90
5278;DHT22;2662;51.194;6.614;2022-12-17T03:20:39;1.10;99.90
5278;DHT22;2662;51.194;6.614;2022-12-17T03:23:23;1.20;99.90
5278;DHT22;2662;51.194;6.614;2022-12-17T03:26:08;1.10;99.90
5278;DHT22;2662;51.194;6.614;2022-12-17T03:28:52;1.10;99.90
5278;DHT22;2662;51.194;6.614;2022-12-17T03:31:38;1.20;99.90
5278;DHT22;2662;51.194;6.614;2022-12-17T03:34:24;1.20;99.90
5278;DHT22;2662;51.194;6.614;2022-12-17T03:37:08;1.30;99.90
5278;DHT22;2662;51.194;6.614;2022-12-17T03:39:52;1.30;99.90
5278;DHT22;2662;51.194;6.614;2022-12-17T03:42:37;1.20;99.90
5278;DHT22;2662;51.194;6.614;2022-12-17T03:45:21;1.20;99.90
5278;DHT22;2662;51.194;6.614;2022-12-17T03:48:06;1.20;99.90
5278;DHT22;2662;51.194;6.614;2022-12-17T03:50:53;1.10;99.90
5278;DHT22;2662;51.194;6.614;2022-12-17T03:53:37;1.10;99.90
5278;DHT22;2662;51.194;6.614;2022-12-17T03:56:21;1.10;99.90
5278;DHT22;2662;51.194;6.614;2022-12-17T03:59:05;1.10;99.90
5278;DHT22;2662;51.194;6.614;2022-12-17T04:01:49;1.10;99.90
5278;DHT22;2662;51.194;6.614;2022-12-17T04:04:30;1.20;99.90
5278;DHT22;2662;51.194;6.614;2022-12-17T04:07:16;1.30;99.90
5278;DHT22;2662;51.194;6.614;2022-12-17T04:10:00;1.30;99.90
5278;DHT22;2662;51.194;6.614;2022-12-17T04:12:44;1.40;99.90
5278;DHT22;2662;51.194;6.614;2022-12-17T04:15:28;1.40;99.90
5278;DHT22;2662;51.194;6.614;2022-12-17T04:18:12;1.40;99.90
5278;DHT22;2662;51.194;6.614;2022-12-17T04:20:56;1.40;99.90
5278;DHT22;2662;51.194;6.614;2022-12-17T04:23:42;1.50;99.90
5278;DHT22;2662;51.194;6.614;2022-12-17T04:26:26;1.50;99.90
5278;DHT22;2662;51.194;6.614;2022-12-17T04:29:10;1.40;99.90
5278;DHT22;2662;51.194;6.614;2022-12-17T04:31:54;1.40;99.90
5278;DHT22;2662;51.194;6.614;2022-12-17T04:34:38;1.50;99.90
5278;DHT22;2662;51.194;6.614;2022-12-17T04:37:22;1.50;99.90
5278;DHT22;2662;51.194;6.614;2022-12-17T04:40:10;1.50;99.90
5278;DHT22;2662;51.194;6.614;2022-12-17T04:42:54;1.40;99.90
5278;DHT22;2662;51.194;6.614;2022-12-17T04:45:38;1.30;99.90
5278;DHT22;2662;51.194;6.614;2022-12-17T04:48:22;1.40;99.90
5278;DHT22;2662;51.194;6.614;2022-12-17T04:51:07;1.40;99.90
5278;DHT22;2662;51.194;6.614;2022-12-17T04:53:51;1.40;99.90
5278;DHT22;2662;51.194;6.614;2022-12-17T04:56:36;1.30;99.90
5278;DHT22;2662;51.194;6.614;2022-12-17T04:59:20;1.30;99.90
5278;DHT22;2662;51.194;6.614;2022-12-17T05:02:04;1.30;99.90
5278;DHT22;2662;51.194;6.614;2022-12-17T05:04:48;1.20;99.90
5278;DHT22;2662;51.194;6.614;2022-12-17T05:07:32;1.20;99.90
5278;DHT22;2662;51.194;6.614;2022-12-17T05:10:17;1.20;99.90
5278;DHT22;2662;51.194;6.614;2022-12-17T05:13:02;1.20;99.90
5278;DHT22;2662;51.194;6.614;2022-12-17T05:15:46;1.30;99.90
5278;DHT22;2662;51.194;6.614;2022-12-17T05:18:30;1.30;99.90
5278;DHT22;2662;51.194;6.614;2022-12-17T05:21:14;1.10;99.90
5278;DHT22;2662;51.194;6.614;2022-12-17T05:23:59;1.00;99.90
5278;DHT22;2662;51.194;6.614;2022-12-17T05:26:43;1.00;99.90
5278;DHT22;2662;51.194;6.614;2022-12-17T05:29:28;1.00;99.90
5278;DHT22;2662;51.194;6.614;2022-12-17T05:32:12;1.00;99.90
5278;DHT22;2662;51.194;6.614;2022-12-17T05:34:57;1.00;99.90
5278;DHT22;2662;51.194;6.614;2022-12-17T05:37:41;1.00;99.90
5278;DHT22;2662;51.194;6.614;2022-12-17T05:40:25;1.00;99.90
5278;DHT22;2662;51.194;6.614;2022-12-17T05:43:11;1.00;99.90
5278;DHT22;2662;51.194;6.614;2022-12-17T05:46:01;0.90;99.90
5278;DHT22;2662;51.194;6.614;2022-12-17T05:48:45;0.90;99.90
5278;DHT22;2662;51.194;6.614;2022-12-17T05:51:29;0.90;99.90
5278;DHT22;2662;51.194;6.614;2022-12-17T05:54:14;0.80;99.90
5278;DHT22;2662;51.194;6.614;2022-12-17T05:56:58;0.80;99.90
5278;DHT22;2662;51.194;6.614;2022-12-17T05:59:42;0.80;99.90
5278;DHT22;2662;51.194;6.614;2022-12-17T06:02:28;0.90;99.90
5278;DHT22;2662;51.194;6.614;2022-12-17T06:05:12;0.80;99.90
5278;DHT22;2662;51.194;6.614;2022-12-17T06:08:01;0.90;99.90
5278;DHT22;2662;51.194;6.614;2022-12-17T06:10:45;0.90;99.90
5278;DHT22;2662;51.194;6.614;2022-12-17T06:13:30;1.00;99.90
5278;DHT22;2662;51.194;6.614;2022-12-17T06:16:14;1.00;99.90
5278;DHT22;2662;51.194;6.614;2022-12-17T06:18:59;0.90;99.90
5278;DHT22;2662;51.194;6.614;2022-12-17T06:21:43;0.90;99.90
5278;DHT22;2662;51.194;6.614;2022-12-17T06:24:28;0.90;99.90
5278;DHT22;2662;51.194;6.614;2022-12-17T06:27:12;0.80;99.90
5278;DHT22;2662;51.194;6.614;2022-12-17T06:30:03;0.70;99.90
5278;DHT22;2662;51.194;6.614;2022-12-17T06:32:47;0.70;99.90
5278;DHT22;2662;51.194;6.614;2022-12-17T06:35:33;0.70;99.90
5278;DHT22;2662;51.194;6.614;2022-12-17T06:38:17;0.70;99.90
5278;DHT22;2662;51.194;6.614;2022-12-17T06:41:01;0.70;99.90
5278;DHT22;2662;51.194;6.614;2022-12-17T06:43:46;0.70;99.90
5278;DHT22;2662;51.194;6.614;2022-12-17T06:46:30;0.50;99.90
5278;DHT22;2662;51.194;6.614;2022-12-17T06:49:14;0.50;99.90
5278;DHT22;2662;51.194;6.614;2022-12-17T06:52:00;0.50;99.90
5278;DHT22;2662;51.194;6.614;2022-12-17T06:54:44;0.50;99.90
5278;DHT22;2662;51.194;6.614;2022-12-17T06:57:28;0.50;99.90
5278;DHT22;2662;51.194;6.614;2022-12-17T07:00:12;0.50;99.90
5278;DHT22;2662;51.194;6.614;2022-12-17T07:02:57;0.50;99.90
5278;DHT22;2662;51.194;6.614;2022-12-17T07:05:42;0.50;99.90
5278;DHT22;2662;51.194;6.614;2022-12-17T07:08:27;0.50;99.90
5278;DHT22;2662;51.194;6.614;2022-12-17T07:11:20;0.50;99.90
5278;DHT22;2662;51.194;6.614;2022-12-17T07:14:04;0.60;99.90
5278;DHT22;2662;51.194;6.614;2022-12-17T07:16:49;0.50;99.90
5278;DHT22;2662;51.194;6.614;2022-12-17T07:19:33;0.50;99.90
5278;DHT22;2662;51.194;6.614;2022-12-17T07:22:17;0.40;99.90
5278;DHT22;2662;51.194;6.614;2022-12-17T07:24:59;0.40;99.90
5278;DHT22;2662;51.194;6.614;2022-12-17T07:27:51;0.50;99.90
5278;DHT22;2662;51.194;6.614;2022-12-17T07:30:36;0.50;99.90
5278;DHT22;2662;51.194;6.614;2022-12-17T07:33:20;0.40;99.90
5278;DHT22;2662;51.194;6.614;2022-12-17T07:36:04;0.30;99.90
5278;DHT22;2662;51.194;6.614;2022-12-17T07:38:48;0.40;99.90
5278;DHT22;2662;51.194;6.614;2022-12-17T07:41:34;0.40;99.90
5278;DHT22;2662;51.194;6.614;2022-12-17T07:44:18;0.40;99.90
5278;DHT22;2662;51.194;6.614;2022-12-17T07:47:02;0.30;99.90
5278;DHT22;2662;51.194;6.614;2022-12-17T07:49:47;0.30;99.90
5278;DHT22;2662;51.194;6.614;2022-12-17T07:52:31;0.30;99.90
5278;DHT22;2662;51.194;6.614;2022-12-17T07:55:29;0.40;99.90
5278;DHT22;2662;51.194;6.614;2022-12-17T07:58:15;0.40;99.90
5278;DHT22;2662;51.194;6.614;2022-12-17T08:01:00;0.30;99.90
5278;DHT22;2662;51.194;6.614;2022-12-17T08:03:44;0.30;99.90
5278;DHT22;2662;51.194;6.614;2022-12-17T08:06:29;0.20;99.90
5278;DHT22;2662;51.194;6.614;2022-12-17T08:09:13;0.20;99.90
5278;DHT22;2662;51.194;6.614;2022-12-17T08:11:57;0.20;99.90
5278;DHT22;2662;51.194;6.614;2022-12-17T08:14:43;0.20;99.90
5278;DHT22;2662;51.194;6.614;2022-12-17T08:17:27;0.10;99.90
5278;DHT22;2662;51.194;6.614;2022-12-17T08:20:11;0.00;99.90
5278;DHT22;2662;51.194;6.614;2022-12-17T08:23:00;0.10;99.90
5278;DHT22;2662;51.194;6.614;2022-12-17T08:25:44;0.00;99.90
5278;DHT22;2662;51.194;6.614;2022-12-17T08:28:28;0.00;99.90
5278;DHT22;2662;51.194;6.614;2022-12-17T08:31:13;-0.10;99.90
5278;DHT22;2662;51.194;6.614;2022-12-17T08:33:58;-0.20;99.90
5278;DHT22;2662;51.194;6.614;2022-12-17T08:36:42;-0.30;99.90
5278;DHT22;2662;51.194;6.614;2022-12-17T08:39:26;-0.30;99.90
5278;DHT22;2662;51.194;6.614;2022-12-17T08:42:10;-0.20;99.90
5278;DHT22;2662;51.194;6.614;2022-12-17T08:44:54;-0.20;99.90
5278;DHT22;2662;51.194;6.614;2022-12-17T08:47:40;-0.30;99.90
5278;DHT22;2662;51.194;6.614;2022-12-17T08:50:24;-0.40;99.90
5278;DHT22;2662;51.194;6.614;2022-12-17T08:53:08;-0.40;99.90
5278;DHT22;2662;51.194;6.614;2022-12-17T08:55:52;-0.40;99.90
5278;DHT22;2662;51.194;6.614;2022-12-17T08:58:36;-0.40;99.90
5278;DHT22;2662;51.194;6.614;2022-12-17T09:01:20;-0.40;99.90
5278;DHT22;2662;51.194;6.614;2022-12-17T09:04:06;-0.30;99.90
5278;DHT22;2662;51.194;6.614;2022-12-17T09:06:50;-0.40;99.90
5278;DHT22;2662;51.194;6.614;2022-12-17T09:09:34;-0.40;99.90
5278;DHT22;2662;51.194;6.614;2022-12-17T09:12:19;-0.30;99.90
5278;DHT22;2662;51.194;6.614;2022-12-17T09:15:03;-0.50;99.90
5278;DHT22;2662;51.194;6.614;2022-12-17T09:17:49;-0.50;99.90
5278;DHT22;2662;51.194;6.614;2022-12-17T09:20:35;-0.50;99.90
5278;DHT22;2662;51.194;6.614;2022-12-17T09:23:20;-0.40;99.90
5278;DHT22;2662;51.194;6.614;2022-12-17T09:26:04;-0.40;99.90
5278;DHT22;2662;51.194;6.614;2022-12-17T09:28:49;-0.40;99.90
5278;DHT22;2662;51.194;6.614;2022-12-17T09:31:33;-0.30;99.90
5278;DHT22;2662;51.194;6.614;2022-12-17T09:34:18;-0.40;99.90
5278;DHT22;2662;51.194;6.614;2022-12-17T09:37:04;-0.40;99.90
5278;DHT22;2662;51.194;6.614;2022-12-17T09:39:48;-0.40;99.90
5278;DHT22;2662;51.194;6.614;2022-12-17T09:42:39;-0.40;99.90
5278;DHT22;2662;51.194;6.614;2022-12-17T09:45:29;-0.50;99.90
5278;DHT22;2662;51.194;6.614;2022-12-17T09:48:20;-0.60;99.90
5278;DHT22;2662;51.194;6.614;2022-12-17T09:51:20;-0.50;99.90
5278;DHT22;2662;51.194;6.614;2022-12-17T09:54:12;-0.60;99.90
5278;DHT22;2662;51.194;6.614;2022-12-17T09:56:58;-0.70;99.90
5278;DHT22;2662;51.194;6.614;2022-12-17T09:59:42;-0.70;99.90
5278;DHT22;2662;51.194;6.614;2022-12-17T10:02:29;-0.80;99.90
5278;DHT22;2662;51.194;6.614;2022-12-17T10:05:17;-0.80;99.90
5278;DHT22;2662;51.194;6.614;2022-12-17T10:08:04;-0.90;99.90
5278;DHT22;2662;51.194;6.614;2022-12-17T10:10:51;-0.90;99.90
5278;DHT22;2662;51.194;6.614;2022-12-17T10:13:36;-0.90;99.90
5278;DHT22;2662;51.194;6.614;2022-12-17T10:16:24;-0.80;99.90
5278;DHT22;2662;51.194;6.614;2022-12-17T10:19:14;-0.80;99.90
5278;DHT22;2662;51.194;6.614;2022-12-17T10:22:09;-0.80;99.90
5278;DHT22;2662;51.194;6.614;2022-12-17T10:24:54;-0.90;99.90
5278;DHT22;2662;51.194;6.614;2022-12-17T10:27:39;-0.90;99.90
5278;DHT22;2662;51.194;6.614;2022-12-17T10:30:23;-0.90;99.90
5278;DHT22;2662;51.194;6.614;2022-12-17T10:33:15;-0.80;99.90
5278;DHT22;2662;51.194;6.614;2022-12-17T10:36:02;-0.70;99.90
5278;DHT22;2662;51.194;6.614;2022-12-17T10:38:53;-0.60;99.90
5278;DHT22;2662;51.194;6.614;2022-12-17T10:41:40;-0.60;99.90
5278;DHT22;2662;51.194;6.614;2022-12-17T10:44:28;-0.70;99.90
5278;DHT22;2662;51.194;6.614;2022-12-17T10:47:13;-0.60;99.90
5278;DHT22;2662;51.194;6.614;2022-12-17T10:49:59;-0.70;99.90
5278;DHT22;2662;51.194;6.614;2022-12-17T10:52:45;-0.70;99.90
5278;DHT22;2662;51.194;6.614;2022-12-17T10:55:32;-0.70;99.90
5278;DHT22;2662;51.194;6.614;2022-12-17T10:58:20;-0.70;99.90
5278;DHT22;2662;51.194;6.614;2022-12-17T11:01:10;-0.60;99.90
5278;DHT22;2662;51.194;6.614;2022-12-17T11:03:56;-0.60;99.90
5278;DHT22;2662;51.194;6.614;2022-12-17T11:06:43;-0.60;99.90
5278;DHT22;2662;51.194;6.614;2022-12-17T11:09:38;-0.80;99.90
5278;DHT22;2662;51.194;6.614;2022-12-17T11:12:28;-0.70;99.90
5278;DHT22;2662;51.194;6.614;2022-12-17T11:15:19;-0.80;99.90
5278;DHT22;2662;51.194;6.614;2022-12-17T11:18:12;-0.70;99.90
5278;DHT22;2662;51.194;6.614;2022-12-17T11:21:03;-0.60;99.90
5278;DHT22;2662;51.194;6.614;2022-12-17T11:23:49;-0.50;99.90
5278;DHT22;2662;51.194;6.614;2022-12-17T11:26:37;-0.50;99.90
5278;DHT22;2662;51.194;6.614;2022-12-17T11:29:24;-0.40;99.90
5278;DHT22;2662;51.194;6.614;2022-12-17T11:32:23;-0.30;99.90
5278;DHT22;2662;51.194;6.614;2022-12-17T11:35:18;-0.30;99.90
5278;DHT22;2662;51.194;6.614;2022-12-17T11:38:13;-0.20;99.90
5278;DHT22;2662;51.194;6.614;2022-12-17T11:41:03;-0.20;99.90
5278;DHT22;2662;51.194;6.614;2022-12-17T11:43:56;-0.20;99.90
5278;DHT22;2662;51.194;6.614;2022-12-17T11:46:47;-0.10;99.90
5278;DHT22;2662;51.194;6.614;2022-12-17T11:49:39;-0.20;99.90
5278;DHT22;2662;51.194;6.614;2022-12-17T11:52:32;-0.30;99.90
5278;DHT22;2662;51.194;6.614;2022-12-17T11:55:23;-0.40;99.90
5278;DHT22;2662;51.194;6.614;2022-12-17T11:58:14;-0.40;99.90
5278;DHT22;2662;51.194;6.614;2022-12-17T12:01:12;-0.30;99.90
5278;DHT22;2662;51.194;6.614;2022-12-17T12:04:04;-0.20;99.90
5278;DHT22;2662;51.194;6.614;2022-12-17T12:07:00;-0.40;99.90
5278;DHT22;2662;51.194;6.614;2022-12-17T12:09:52;-0.40;99.90
5278;DHT22;2662;51.194;6.614;2022-12-17T12:12:49;-0.30;99.90
5278;DHT22;2662;51.194;6.614;2022-12-17T12:15:40;-0.20;99.90
5278;DHT22;2662;51.194;6.614;2022-12-17T12:18:34;-0.20;99.90
5278;DHT22;2662;51.194;6.614;2022-12-17T12:21:30;-0.10;99.90
5278;DHT22;2662;51.194;6.614;2022-12-17T12:24:35;-0.10;99.90
5278;DHT22;2662;51.194;6.614;2022-12-17T12:27:33;-0.10;99.90
5278;DHT22;2662;51.194;6.614;2022-12-17T12:30:21;-0.30;99.90
5278;DHT22;2662;51.194;6.614;2022-12-17T12:33:16;-0.30;99.90
5278;DHT22;2662;51.194;6.614;2022-12-17T12:36:08;-0.30;99.90
5278;DHT22;2662;51.194;6.614;2022-12-17T12:39:11;-0.30;99.90
5278;DHT22;2662;51.194;6.614;2022-12-17T12:42:00;-0.30;99.90
5278;DHT22;2662;51.194;6.614;2022-12-17T12:45:01;-0.30;99.90
5278;DHT22;2662;51.194;6.614;2022-12-17T12:47:53;-0.20;99.90
5278;DHT22;2662;51.194;6.614;2022-12-17T12:50:47;-0.20;99.90
5278;DHT22;2662;51.194;6.614;2022-12-17T12:53:31;0.00;99.90
5278;DHT22;2662;51.194;6.614;2022-12-17T12:56:37;0.10;99.90
5278;DHT22;2662;51.194;6.614;2022-12-17T12:59:26;0.00;99.90
5278;DHT22;2662;51.194;6.614;2022-12-17T13:02:23;-0.10;99.90
5278;DHT22;2662;51.194;6.614;2022-12-17T13:05:21;-0.20;99.90
5278;DHT22;2662;51.194;6.614;2022-12-17T13:08:17;-0.40;99.90
5278;DHT22;2662;51.194;6.614;2022-12-17T13:10:45;-0.50;99.90
5278;DHT22;2662;51.194;6.614;2022-12-17T13:13:21;-0.60;99.90
5278;DHT22;2662;51.194;6.614;2022-12-17T13:15:53;-0.60;99.90
5278;DHT22;2662;51.194;6.614;2022-12-17T13:18:26;-0.60;99.90
5278;DHT22;2662;51.194;6.614;2022-12-17T13:20:59;-0.60;99.90
5278;DHT22;2662;51.194;6.614;2022-12-17T13:23:33;-0.70;99.90
5278;DHT22;2662;51.194;6.614;2022-12-17T13:26:19;-0.60;99.90
5278;DHT22;2662;51.194;6.614;2022-12-17T13:29:01;-0.70;99.90
5278;DHT22;2662;51.194;6.614;2022-12-17T13:31:31;-0.60;99.90
5278;DHT22;2662;51.194;6.614;2022-12-17T13:34:13;-0.70;99.90
5278;DHT22;2662;51.194;6.614;2022-12-17T13:36:48;-0.80;99.90
5278;DHT22;2662;51.194;6.614;2022-12-17T13:39:32;-0.90;99.90
5278;DHT22;2662;51.194;6.614;2022-12-17T13:41:59;-0.90;99.90
5278;DHT22;2662;51.194;6.614;2022-12-17T13:44:32;-0.90;99.90
5278;DHT22;2662;51.194;6.614;2022-12-17T13:47:01;-0.80;99.90
5278;DHT22;2662;51.194;6.614;2022-12-17T13:49:30;-0.90;99.90
5278;DHT22;2662;51.194;6.614;2022-12-17T13:52:01;-0.80;99.90
5278;DHT22;2662;51.194;6.614;2022-12-17T13:54:28;-0.80;99.90
5278;DHT22;2662;51.194;6.614;2022-12-17T13:57:05;-0.70;99.90
5278;DHT22;2662;51.194;6.614;2022-12-17T13:59:33;-0.70;99.90
5278;DHT22;2662;51.194;6.614;2022-12-17T14:01:59;-0.70;99.90
5278;DHT22;2662;51.194;6.614;2022-12-17T14:04:29;-0.70;99.90
5278;DHT22;2662;51.194;6.614;2022-12-17T14:06:58;-0.80;99.90
5278;DHT22;2662;51.194;6.614;2022-12-17T14:09:31;-0.80;99.90
5278;DHT22;2662;51.194;6.614;2022-12-17T14:12:01;-0.90;99.90
5278;DHT22;2662;51.194;6.614;2022-12-17T14:14:47;-0.90;99.90
5278;DHT22;2662;51.194;6.614;2022-12-17T14:17:20;-0.90;99.90
5278;DHT22;2662;51.194;6.614;2022-12-17T14:19:53;-0.80;99.90
5278;DHT22;2662;51.194;6.614;2022-12-17T14:22:29;-0.90;99.90
5278;DHT22;2662;51.194;6.614;2022-12-17T14:24:57;-0.80;99.90
5278;DHT22;2662;51.194;6.614;2022-12-17T14:27:26;-0.80;99.90
5278;DHT22;2662;51.194;6.614;2022-12-17T14:29:57;-0.90;99.90
5278;DHT22;2662;51.194;6.614;2022-12-17T14:32:28;-1.00;99.90
5278;DHT22;2662;51.194;6.614;2022-12-17T14:34:57;-1.00;99.90
5278;DHT22;2662;51.194;6.614;2022-12-17T14:37:25;-1.10;99.90
5278;DHT22;2662;51.194;6.614;2022-12-17T14:39:56;-1.20;99.90
5278;DHT22;2662;51.194;6.614;2022-12-17T14:42:25;-1.30;99.90
5278;DHT22;2662;51.194;6.614;2022-12-17T14:44:52;-1.30;99.90
5278;DHT22;2662;51.194;6.614;2022-12-17T14:47:22;-1.30;99.90
5278;DHT22;2662;51.194;6.614;2022-12-17T14:49:57;-1.30;99.90
5278;DHT22;2662;51.194;6.614;2022-12-17T14:52:29;-1.30;99.90
5278;DHT22;2662;51.194;6.614;2022-12-17T14:54:58;-1.40;99.90
5278;DHT22;2662;51.194;6.614;2022-12-17T14:57:25;-1.40;99.90
5278;DHT22;2662;51.194;6.614;2022-12-17T14:59:51;-1.50;99.90
5278;DHT22;2662;51.194;6.614;2022-12-17T15:02:21;-1.60;99.90
5278;DHT22;2662;51.194;6.614;2022-12-17T15:04:51;-1.70;99.90
5278;DHT22;2662;51.194;6.614;2022-12-17T15:07:22;-1.70;99.90
5278;DHT22;2662;51.194;6.614;2022-12-17T15:09:50;-1.80;99.90
5278;DHT22;2662;51.194;6.614;2022-12-17T15:12:18;-1.80;99.90
5278;DHT22;2662;51.194;6.614;2022-12-17T15:14:44;-1.80;99.90
5278;DHT22;2662;51.194;6.614;2022-12-17T15:17:12;-1.90;99.90
5278;DHT22;2662;51.194;6.614;2022-12-17T15:19:39;-2.00;99.90
5278;DHT22;2662;51.194;6.614;2022-12-17T15:22:08;-2.10;99.90
5278;DHT22;2662;51.194;6.614;2022-12-17T15:24:37;-2.20;99.90
5278;DHT22;2662;51.194;6.614;2022-12-17T15:27:03;-2.20;99.90
5278;DHT22;2662;51.194;6.614;2022-12-17T15:29:30;-2.30;99.90
5278;DHT22;2662;51.194;6.614;2022-12-17T15:31:59;-2.40;99.90
5278;DHT22;2662;51.194;6.614;2022-12-17T15:34:25;-2.50;99.90
5278;DHT22;2662;51.194;6.614;2022-12-17T15:36:52;-2.50;99.90
5278;DHT22;2662;51.194;6.614;2022-12-17T15:39:19;-2.60;99.90
5278;DHT22;2662;51.194;6.614;2022-12-17T15:41:47;-2.60;99.90
5278;DHT22;2662;51.194;6.614;2022-12-17T15:44:31;-2.70;99.90
5278;DHT22;2662;51.194;6.614;2022-12-17T15:46:57;-2.70;99.90
5278;DHT22;2662;51.194;6.614;2022-12-17T15:49:24;-2.80;99.90
5278;DHT22;2662;51.194;6.614;2022-12-17T15:51:51;-2.90;99.90
5278;DHT22;2662;51.194;6.614;2022-12-17T15:54:18;-2.90;99.90
5278;DHT22;2662;51.194;6.614;2022-12-17T15:56:52;-3.00;99.90
5278;DHT22;2662;51.194;6.614;2022-12-17T15:59:19;-3.00;99.90
5278;DHT22;2662;51.194;6.614;2022-12-17T16:01:45;-3.00;99.90
5278;DHT22;2662;51.194;6.614;2022-12-17T16:04:12;-3.00;99.90
5278;DHT22;2662;51.194;6.614;2022-12-17T16:06:39;-3.00;99.90
5278;DHT22;2662;51.194;6.614;2022-12-17T16:09:06;-3.00;99.90
5278;DHT22;2662;51.194;6.614;2022-12-17T16:11:32;-3.00;99.90
5278;DHT22;2662;51.194;6.614;2022-12-17T16:14:00;-3.00;99.90
5278;DHT22;2662;51.194;6.614;2022-12-17T16:16:28;-3.10;99.90
5278;DHT22;2662;51.194;6.614;2022-12-17T16:18:55;-3.10;99.90
5278;DHT22;2662;51.194;6.614;2022-12-17T16:21:21;-3.10;99.90
5278;DHT22;2662;51.194;6.614;2022-12-17T16:23:48;-3.10;99.90
5278;DHT22;2662;51.194;6.614;2022-12-17T16:26:15;-3.20;99.90
5278;DHT22;2662;51.194;6.614;2022-12-17T16:28:42;-3.20;99.90
5278;DHT22;2662;51.194;6.614;2022-12-17T16:31:12;-3.20;99.90
5278;DHT22;2662;51.194;6.614;2022-12-17T16:33:40;-3.20;99.90
5278;DHT22;2662;51.194;6.614;2022-12-17T16:36:11;-3.20;99.90
5278;DHT22;2662;51.194;6.614;2022-12-17T16:38:42;-3.20;99.90
5278;DHT22;2662;51.194;6.614;2022-12-17T16:41:10;-3.30;99.90
5278;DHT22;2662;51.194;6.614;2022-12-17T16:43:37;-3.30;99.90
5278;DHT22;2662;51.194;6.614;2022-12-17T16:46:04;-3.40;99.90
5278;DHT22;2662;51.194;6.614;2022-12-17T16:48:36;-3.40;99.90
5278;DHT22;2662;51.194;6.614;2022-12-17T16:51:14;-3.40;99.90
5278;DHT22;2662;51.194;6.614;2022-12-17T16:53:41;-3.30;99.90
5278;DHT22;2662;51.194;6.614;2022-12-17T16:56:14;-3.30;99.90
5278;DHT22;2662;51.194;6.614;2022-12-17T16:58:41;-3.40;99.90
5278;DHT22;2662;51.194;6.614;2022-12-17T17:01:08;-3.50;99.90
5278;DHT22;2662;51.194;6.614;2022-12-17T17:03:39;-3.50;99.90
5278;DHT22;2662;51.194;6.614;2022-12-17T17:06:06;-3.60;99.90
5278;DHT22;2662;51.194;6.614;2022-12-17T17:08:33;-3.60;99.90
5278;DHT22;2662;51.194;6.614;2022-12-17T17:11:08;-3.60;99.90
5278;DHT22;2662;51.194;6.614;2022-12-17T17:13:36;-3.60;99.90
5278;DHT22;2662;51.194;6.614;2022-12-17T17:16:03;-3.60;99.90
5278;DHT22;2662;51.194;6.614;2022-12-17T17:18:30;-3.60;99.90
5278;DHT22;2662;51.194;6.614;2022-12-17T17:21:20;-3.70;99.90
5278;DHT22;2662;51.194;6.614;2022-12-17T17:23:50;-3.70;99.90
5278;DHT22;2662;51.194;6.614;2022-12-17T17:26:18;-3.70;99.90
5278;DHT22;2662;51.194;6.614;2022-12-17T17:28:45;-3.80;99.90
5278;DHT22;2662;51.194;6.614;2022-12-17T17:31:13;-3.80;99.90
5278;DHT22;2662;51.194;6.614;2022-12-17T17:33:42;-3.90;99.90
5278;DHT22;2662;51.194;6.614;2022-12-17T17:36:12;-3.90;99.90
5278;DHT22;2662;51.194;6.614;2022-12-17T17:38:40;-4.00;99.90
5278;DHT22;2662;51.194;6.614;2022-12-17T17:41:09;-4.00;99.90
5278;DHT22;2662;51.194;6.614;2022-12-17T17:43:36;-4.00;99.90
5278;DHT22;2662;51.194;6.614;2022-12-17T17:46:04;-4.10;99.90